sensor_id;sensor_type;location;lat;lon;timestamp;pressure;altitude;pressure_sealevel;temperature;humidity
4398;BME280;2213;49.720;7.296;2023-08-20T00:01:27;98565.88;;;21.64;100.00
4398;BME280;2213;49.720;7.296;2023-08-20T00:03:59;98564.25;;;21.63;100.00
4398;BME280;2213;49.720;7.296;2023-08-20T00:06:31;98570.31;;;21.58;100.00
4398;BME280;2213;49.720;7.296;2023-08-20T00:09:01;98581.28;;;21.62;100.00
4398;BME280;2213;49.720;7.296;2023-08-20T00:11:33;98574.91;;;21.63;100.00
4398;BME280;2213;49.720;7.296;2023-08-20T00:14:02;98580.72;;;21.59;100.00
4398;BME280;2213;49.720;7.296;2023-08-20T00:16:35;98569.91;;;21.49;100.00
4398;BME280;2213;49.720;7.296;2023-08-20T00:19:05;98571.53;;;21.50;100.00
4398;BME280;2213;49.720;7.296;2023-08-20T00:21:38;98571.94;;;21.42;100.00
4398;BME280;2213;49.720;7.296;2023-08-20T00:24:11;98576.72;;;21.40;100.00
4398;BME280;2213;49.720;7.296;2023-08-20T00:26:44;98571.72;;;21.27;100.00
4398;BME280;2213;49.720;7.296;2023-08-20T00:29:13;98561.56;;;21.24;100.00
4398;BME280;2213;49.720;7.296;2023-08-20T00:31:44;98568.44;;;21.20;100.00
4398;BME280;2213;49.720;7.296;2023-08-20T00:34:13;98566.16;;;21.12;100.00
4398;BME280;2213;49.720;7.296;2023-08-20T00:36:43;98555.63;;;21.17;100.00
4398;BME280;2213;49.720;7.296;2023-08-20T00:39:13;98559.63;;;21.20;100.00
4398;BME280;2213;49.720;7.296;2023-08-20T00:41:43;98559.69;;;21.08;100.00
4398;BME280;2213;49.720;7.296;2023-08-20T00:44:13;98563.78;;;20.99;100.00
4398;BME280;2213;49.720;7.296;2023-08-20T00:46:44;98550.56;;;21.04;100.00
4398;BME280;2213;49.720;7.296;2023-08-20T00:49:14;98555.16;;;21.08;100.00
4398;BME280;2213;49.720;7.296;2023-08-20T00:51:44;98542.91;;;21.07;100.00
4398;BME280;2213;49.720;7.296;2023-08-20T00:54:16;98545.72;;;21.01;100.00
4398;BME280;2213;49.720;7.296;2023-08-20T00:56:47;98548.06;;;20.97;100.00
4398;BME280;2213;49.720;7.296;2023-08-20T00:59:18;98540.50;;;20.89;100.00
4398;BME280;2213;49.720;7.296;2023-08-20T01:01:51;98542.34;;;20.89;100.00
4398;BME280;2213;49.720;7.296;2023-08-20T01:04:19;98542.97;;;20.79;100.00
4398;BME280;2213;49.720;7.296;2023-08-20T01:07:01;98542.63;;;20.76;100.00
4398;BME280;2213;49.720;7.296;2023-08-20T01:09:48;98545.88;;;20.78;100.00
4398;BME280;2213;49.720;7.296;2023-08-20T01:12:20;98549.41;;;20.83;100.00
4398;BME280;2213;49.720;7.296;2023-08-20T01:14:52;98550.16;;;20.79;100.00
4398;BME280;2213;49.720;7.296;2023-08-20T01:17:23;98553.28;;;20.76;100.00
4398;BME280;2213;49.720;7.296;2023-08-20T01:19:52;98553.59;;;20.79;100.00
4398;BME280;2213;49.720;7.296;2023-08-20T01:26:06;98555.72;;;20.77;100.00
4398;BME280;2213;49.720;7.296;2023-08-20T01:28:38;98561.50;;;20.74;100.00
4398;BME280;2213;49.720;7.296;2023-08-20T01:31:09;98564.78;;;20.65;100.00
4398;BME280;2213;49.720;7.296;2023-08-20T01:33:41;98570.59;;;20.62;100.00
4398;BME280;2213;49.720;7.296;2023-08-20T01:36:10;98568.38;;;20.58;100.00
4398;BME280;2213;49.720;7.296;2023-08-20T01:38:40;98569.78;;;20.61;100.00
4398;BME280;2213;49.720;7.296;2023-08-20T01:41:10;98560.53;;;20.64;100.00
4398;BME280;2213;49.720;7.296;2023-08-20T01:43:42;98568.16;;;20.60;100.00
4398;BME280;2213;49.720;7.296;2023-08-20T01:46:13;98570.31;;;20.46;100.00
4398;BME280;2213;49.720;7.296;2023-08-20T01:48:42;98575.03;;;20.44;100.00
4398;BME280;2213;49.720;7.296;2023-08-20T01:51:12;98574.59;;;20.47;100.00
4398;BME280;2213;49.720;7.296;2023-08-20T01:53:43;98577.25;;;20.47;100.00
4398;BME280;2213;49.720;7.296;2023-08-20T01:56:13;98586.25;;;20.46;100.00
4398;BME280;2213;49.720;7.296;2023-08-20T01:58:45;98585.78;;;20.49;100.00
4398;BME280;2213;49.720;7.296;2023-08-20T02:01:15;98589.28;;;20.38;100.00
4398;BME280;2213;49.720;7.296;2023-08-20T02:03:45;98583.28;;;20.31;100.00
4398;BME280;2213;49.720;7.296;2023-08-20T02:06:14;98589.28;;;20.27;100.00
4398;BME280;2213;49.720;7.296;2023-08-20T02:08:45;98573.03;;;20.23;100.00
4398;BME280;2213;49.720;7.296;2023-08-20T02:11:15;98575.19;;;20.26;100.00
4398;BME280;2213;49.720;7.296;2023-08-20T02:13:48;98576.72;;;20.22;100.00
4398;BME280;2213;49.720;7.296;2023-08-20T02:16:19;98579.72;;;20.14;100.00
4398;BME280;2213;49.720;7.296;2023-08-20T02:18:48;98566.38;;;20.09;100.00
4398;BME280;2213;49.720;7.296;2023-08-20T02:21:18;98569.56;;;20.11;100.00
4398;BME280;2213;49.720;7.296;2023-08-20T02:23:48;98562.50;;;20.17;100.00
4398;BME280;2213;49.720;7.296;2023-08-20T02:26:17;98570.06;;;20.08;100.00
4398;BME280;2213;49.720;7.296;2023-08-20T02:28:48;98574.91;;;19.99;100.00
4398;BME280;2213;49.720;7.296;2023-08-20T02:31:17;98567.28;;;20.03;100.00
4398;BME280;2213;49.720;7.296;2023-08-20T02:33:47;98568.22;;;20.08;100.00
4398;BME280;2213;49.720;7.296;2023-08-20T02:36:16;98565.56;;;20.08;100.00
4398;BME280;2213;49.720;7.296;2023-08-20T02:38:48;98573.19;;;20.05;100.00
4398;BME280;2213;49.720;7.296;2023-08-20T02:41:17;98568.69;;;20.05;100.00
4398;BME280;2213;49.720;7.296;2023-08-20T02:43:49;98571.56;;;20.04;100.00
4398;BME280;2213;49.720;7.296;2023-08-20T02:46:21;98567.75;;;20.00;100.00
4398;BME280;2213;49.720;7.296;2023-08-20T02:48:53;98573.66;;;20.02;100.00
4398;BME280;2213;49.720;7.296;2023-08-20T02:51:23;98571.56;;;20.04;100.00
4398;BME280;2213;49.720;7.296;2023-08-20T02:53:53;98574.69;;;20.01;100.00
4398;BME280;2213;49.720;7.296;2023-08-20T02:56:23;98576.44;;;19.95;100.00
4398;BME280;2213;49.720;7.296;2023-08-20T02:58:54;98570.41;;;20.00;100.00
4398;BME280;2213;49.720;7.296;2023-08-20T03:01:26;98573.66;;;20.02;100.00
4398;BME280;2213;49.720;7.296;2023-08-20T03:03:56;98575.84;;;19.93;100.00
4398;BME280;2213;49.720;7.296;2023-08-20T03:06:27;98576.66;;;19.94;100.00
4398;BME280;2213;49.720;7.296;2023-08-20T03:08:57;98567.88;;;19.93;100.00
4398;BME280;2213;49.720;7.296;2023-08-20T03:11:27;98571.34;;;19.94;100.00
4398;BME280;2213;49.720;7.296;2023-08-20T03:13:59;98564.41;;;19.93;100.00
4398;BME280;2213;49.720;7.296;2023-08-20T03:16:28;98562.22;;;19.90;100.00
4398;BME280;2213;49.720;7.296;2023-08-20T03:18:57;98562.22;;;19.90;100.00
4398;BME280;2213;49.720;7.296;2023-08-20T03:21:27;98559.81;;;19.88;100.00
4398;BME280;2213;49.720;7.296;2023-08-20T03:23:57;98560.38;;;19.90;100.00
4398;BME280;2213;49.720;7.296;2023-08-20T03:26:27;98562.97;;;19.85;100.00
4398;BME280;2213;49.720;7.296;2023-08-20T03:28:58;98566.03;;;19.82;100.00
4398;BME280;2213;49.720;7.296;2023-08-20T03:31:28;98565.72;;;19.79;100.00
4398;BME280;2213;49.720;7.296;2023-08-20T03:33:58;98567.00;;;19.76;100.00
4398;BME280;2213;49.720;7.296;2023-08-20T03:36:28;98575.06;;;19.81;100.00
4398;BME280;2213;49.720;7.296;2023-08-20T03:38:58;98577.72;;;19.81;100.00
4398;BME280;2213;49.720;7.296;2023-08-20T03:41:28;98576.91;;;19.81;100.00
4398;BME280;2213;49.720;7.296;2023-08-20T03:43:59;98587.63;;;19.86;100.00
4398;BME280;2213;49.720;7.296;2023-08-20T03:46:29;98583.38;;;19.85;100.00
4398;BME280;2213;49.720;7.296;2023-08-20T03:48:59;98582.09;;;19.87;100.00
4398;BME280;2213;49.720;7.296;2023-08-20T03:51:29;98582.91;;;19.88;100.00
4398;BME280;2213;49.720;7.296;2023-08-20T03:53:59;98588.22;;;19.88;100.00
4398;BME280;2213;49.720;7.296;2023-08-20T03:56:30;98585.56;;;19.88;100.00
4398;BME280;2213;49.720;7.296;2023-08-20T03:59:02;98589.03;;;19.88;100.00
4398;BME280;2213;49.720;7.296;2023-08-20T04:01:31;98586.59;;;19.87;100.00
4398;BME280;2213;49.720;7.296;2023-08-20T04:04:00;98592.38;;;19.84;100.00
4398;BME280;2213;49.720;7.296;2023-08-20T04:06:31;98591.81;;;19.82;100.00
4398;BME280;2213;49.720;7.296;2023-08-20T04:09:03;98595.59;;;19.86;100.00
4398;BME280;2213;49.720;7.296;2023-08-20T04:11:34;98606.00;;;19.87;100.00
4398;BME280;2213;49.720;7.296;2023-08-20T04:14:06;98607.28;;;19.85;100.00
4398;BME280;2213;49.720;7.296;2023-08-20T04:16:36;98600.91;;;19.86;100.00
4398;BME280;2213;49.720;7.296;2023-08-20T04:19:06;98607.38;;;19.90;100.00
4398;BME280;2213;49.720;7.296;2023-08-20T04:21:37;98596.41;;;19.86;100.00
4398;BME280;2213;49.720;7.296;2023-08-20T04:24:07;98602.53;;;19.87;100.00
4398;BME280;2213;49.720;7.296;2023-08-20T04:26:37;98606.69;;;19.83;100.00
4398;BME280;2213;49.720;7.296;2023-08-20T04:29:08;98603.56;;;19.86;100.00
4398;BME280;2213;49.720;7.296;2023-08-20T04:31:40;98606.22;;;19.86;100.00
4398;BME280;2213;49.720;7.296;2023-08-20T04:34:10;98605.19;;;19.87;100.00
4398;BME280;2213;49.720;7.296;2023-08-20T04:36:38;98608.09;;;19.85;100.00
4398;BME280;2213;49.720;7.296;2023-08-20T04:39:08;98615.44;;;19.83;100.00
4398;BME280;2213;49.720;7.296;2023-08-20T04:41:38;98618.91;;;19.84;100.00
4398;BME280;2213;49.720;7.296;2023-08-20T04:44:11;98622.25;;;19.79;100.00
4398;BME280;2213;49.720;7.296;2023-08-20T04:46:42;98620.88;;;19.77;100.00
4398;BME280;2213;49.720;7.296;2023-08-20T04:49:11;98624.69;;;19.81;100.00
4398;BME280;2213;49.720;7.296;2023-08-20T04:51:43;98619.94;;;19.83;100.00
4398;BME280;2213;49.720;7.296;2023-08-20T04:54:14;98623.31;;;19.78;100.00
4398;BME280;2213;49.720;7.296;2023-08-20T04:56:44;98627.22;;;19.76;100.00
4398;BME280;2213;49.720;7.296;2023-08-20T04:59:15;98623.06;;;19.80;100.00
4398;BME280;2213;49.720;7.296;2023-08-20T05:01:46;98623.06;;;19.80;100.00
4398;BME280;2213;49.720;7.296;2023-08-20T05:04:15;98630.22;;;19.79;100.00
4398;BME280;2213;49.720;7.296;2023-08-20T05:06:47;98629.19;;;19.80;100.00
4398;BME280;2213;49.720;7.296;2023-08-20T05:09:17;98623.41;;;19.83;100.00
4398;BME280;2213;49.720;7.296;2023-08-20T05:11:48;98630.34;;;19.84;100.00
4398;BME280;2213;49.720;7.296;2023-08-20T05:14:19;98630.00;;;19.81;100.00
4398;BME280;2213;49.720;7.296;2023-08-20T05:16:49;98620.75;;;19.83;100.00
4398;BME280;2213;49.720;7.296;2023-08-20T05:19:21;98625.84;;;19.85;100.00
4398;BME280;2213;49.720;7.296;2023-08-20T05:21:52;98630.69;;;19.88;100.00
4398;BME280;2213;49.720;7.296;2023-08-20T05:24:24;98637.38;;;19.90;100.00
4398;BME280;2213;49.720;7.296;2023-08-20T05:27:09;98636.56;;;19.90;100.00
4398;BME280;2213;49.720;7.296;2023-08-20T05:29:44;98636.00;;;19.88;100.00
4398;BME280;2213;49.720;7.296;2023-08-20T05:32:14;98642.47;;;19.92;100.00
4398;BME280;2213;49.720;7.296;2023-08-20T05:34:46;98641.19;;;19.94;100.00
4398;BME280;2213;49.720;7.296;2023-08-20T05:37:16;98642.00;;;19.95;100.00
4398;BME280;2213;49.720;7.296;2023-08-20T05:39:47;98636.22;;;19.98;100.00
4398;BME280;2213;49.720;7.296;2023-08-20T05:42:27;98623.50;;;20.00;100.00
4398;BME280;2213;49.720;7.296;2023-08-20T05:44:58;98638.97;;;20.03;100.00
4398;BME280;2213;49.720;7.296;2023-08-20T05:47:27;98634.47;;;20.03;100.00
4398;BME280;2213;49.720;7.296;2023-08-20T05:49:57;98642.69;;;20.02;100.00
4398;BME280;2213;49.720;7.296;2023-08-20T05:52:28;98641.19;;;20.06;100.00
4398;BME280;2213;49.720;7.296;2023-08-20T05:54:59;98643.84;;;20.06;100.00
4398;BME280;2213;49.720;7.296;2023-08-20T05:57:29;98637.72;;;20.05;100.00
4398;BME280;2213;49.720;7.296;2023-08-20T05:59:59;98639.22;;;20.13;100.00
4398;BME280;2213;49.720;7.296;2023-08-20T06:02:29;98637.94;;;20.16;100.00
4398;BME280;2213;49.720;7.296;2023-08-20T06:04:59;98636.66;;;20.18;100.00
4398;BME280;2213;49.720;7.296;2023-08-20T06:07:29;98632.25;;;20.24;100.00
4398;BME280;2213;49.720;7.296;2023-08-20T06:10:00;98632.16;;;20.30;100.00
4398;BME280;2213;49.720;7.296;2023-08-20T06:12:32;98638.84;;;20.33;100.00
4398;BME280;2213;49.720;7.296;2023-08-20T06:15:05;98634.91;;;20.35;100.00
4398;BME280;2213;49.720;7.296;2023-08-20T06:17:36;98638.50;;;20.41;100.00
4398;BME280;2213;49.720;7.296;2023-08-20T06:20:09;98640.22;;;20.47;100.00
4398;BME280;2213;49.720;7.296;2023-08-20T06:22:40;98635.22;;;20.50;100.00
4398;BME280;2213;49.720;7.296;2023-08-20T06:25:10;98645.38;;;20.53;100.00
4398;BME280;2213;49.720;7.296;2023-08-20T06:27:42;98650.69;;;20.53;100.00
4398;BME280;2213;49.720;7.296;2023-08-20T06:30:16;98647.09;;;20.59;100.00
4398;BME280;2213;49.720;7.296;2023-08-20T06:32:47;98648.22;;;20.64;100.00
4398;BME280;2213;49.720;7.296;2023-08-20T06:35:17;98654.44;;;20.69;100.00
4398;BME280;2213;49.720;7.296;2023-08-20T06:37:48;98646.56;;;20.74;100.00
4398;BME280;2213;49.720;7.296;2023-08-20T06:40:19;98643.22;;;20.79;100.00
4398;BME280;2213;49.720;7.296;2023-08-20T06:42:48;98649.66;;;20.83;100.00
4398;BME280;2213;49.720;7.296;2023-08-20T06:45:20;98660.38;;;20.88;100.00
4398;BME280;2213;49.720;7.296;2023-08-20T06:47:51;98665.00;;;20.92;100.00
4398;BME280;2213;49.720;7.296;2023-08-20T06:50:21;98663.22;;;20.98;100.00
4398;BME280;2213;49.720;7.296;2023-08-20T06:52:51;98657.44;;;21.01;100.00
4398;BME280;2213;49.720;7.296;2023-08-20T06:55:21;98664.94;;;21.04;100.00
4398;BME280;2213;49.720;7.296;2023-08-20T06:57:51;98672.19;;;21.08;100.00
4398;BME280;2213;49.720;7.296;2023-08-20T07:00:23;98664.59;;;21.12;100.00
4398;BME280;2213;49.720;7.296;2023-08-20T07:02:53;98658.22;;;21.13;100.00
4398;BME280;2213;49.720;7.296;2023-08-20T07:05:24;98663.06;;;21.16;100.00
4398;BME280;2213;49.720;7.296;2023-08-20T07:07:53;98659.91;;;21.19;100.00
4398;BME280;2213;49.720;7.296;2023-08-20T07:10:25;98661.06;;;21.23;100.00
4398;BME280;2213;49.720;7.296;2023-08-20T07:12:55;98653.16;;;21.28;100.00
4398;BME280;2213;49.720;7.296;2023-08-20T07:15:26;98658.78;;;21.32;100.00
4398;BME280;2213;49.720;7.296;2023-08-20T07:17:57;98660.19;;;21.34;100.00
4398;BME280;2213;49.720;7.296;2023-08-20T07:20:27;98659.44;;;21.39;100.00
4398;BME280;2213;49.720;7.296;2023-08-20T07:22:56;98649.13;;;21.42;100.00
4398;BME280;2213;49.720;7.296;2023-08-20T07:25:26;98650.25;;;21.46;100.00
4398;BME280;2213;49.720;7.296;2023-08-20T07:27:56;98658.81;;;21.48;100.00
4398;BME280;2213;49.720;7.296;2023-08-20T07:30:30;98657.28;;;21.52;100.00
4398;BME280;2213;49.720;7.296;2023-08-20T07:32:59;98655.75;;;21.56;100.00
4398;BME280;2213;49.720;7.296;2023-08-20T07:35:32;98655.25;;;21.59;100.00
4398;BME280;2213;49.720;7.296;2023-08-20T07:38:04;98651.06;;;21.64;100.00
4398;BME280;2213;49.720;7.296;2023-08-20T07:40:35;98648.72;;;21.67;100.00
4398;BME280;2213;49.720;7.296;2023-08-20T07:43:06;98652.28;;;21.73;100.00
4398;BME280;2213;49.720;7.296;2023-08-20T07:45:37;98652.34;;;21.78;100.00
4398;BME280;2213;49.720;7.296;2023-08-20T07:48:08;98656.13;;;21.82;100.00
4398;BME280;2213;49.720;7.296;2023-08-20T07:50:38;98655.41;;;21.86;100.00
4398;BME280;2213;49.720;7.296;2023-08-20T07:53:07;98649.94;;;21.93;100.00
4398;BME280;2213;49.720;7.296;2023-08-20T07:55:36;98655.31;;;21.98;100.00
4398;BME280;2213;49.720;7.296;2023-08-20T07:58:07;98649.28;;;22.02;100.00
4398;BME280;2213;49.720;7.296;2023-08-20T08:00:38;98651.97;;;22.07;100.00
4398;BME280;2213;49.720;7.296;2023-08-20T08:03:07;98656.34;;;22.14;100.00
4398;BME280;2213;49.720;7.296;2023-08-20T08:05:38;98653.75;;;22.19;100.00
4398;BME280;2213;49.720;7.296;2023-08-20T08:08:07;98662.94;;;22.28;100.00
4398;BME280;2213;49.720;7.296;2023-08-20T08:10:37;98662.19;;;22.32;100.00
4398;BME280;2213;49.720;7.296;2023-08-20T08:13:07;98663.88;;;22.38;100.00
4398;BME280;2213;49.720;7.296;2023-08-20T08:15:39;98652.22;;;22.44;100.00
4398;BME280;2213;49.720;7.296;2023-08-20T08:18:08;98662.16;;;22.49;100.00
4398;BME280;2213;49.720;7.296;2023-08-20T08:20:38;98663.81;;;22.55;100.00
4398;BME280;2213;49.720;7.296;2023-08-20T08:23:09;98662.81;;;22.61;100.00
4398;BME280;2213;49.720;7.296;2023-08-20T08:25:40;98664.72;;;22.66;100.00
4398;BME280;2213;49.720;7.296;2023-08-20T08:28:10;98668.28;;;22.71;100.00
4398;BME280;2213;49.720;7.296;2023-08-20T08:30:41;98668.34;;;22.76;100.00
4398;BME280;2213;49.720;7.296;2023-08-20T08:33:12;98660.66;;;22.80;100.00
4398;BME280;2213;49.720;7.296;2023-08-20T08:35:41;98666.03;;;22.85;100.00
4398;BME280;2213;49.720;7.296;2023-08-20T08:38:13;98666.09;;;22.90;100.00
4398;BME280;2213;49.720;7.296;2023-08-20T08:40:43;98667.22;;;22.94;100.00
4398;BME280;2213;49.720;7.296;2023-08-20T08:43:14;98669.91;;;22.99;100.00
4398;BME280;2213;49.720;7.296;2023-08-20T08:45:47;98671.84;;;23.03;100.00
4398;BME280;2213;49.720;7.296;2023-08-20T08:48:18;98674.81;;;23.07;100.00
4398;BME280;2213;49.720;7.296;2023-08-20T08:50:50;98674.84;;;23.12;100.00
4398;BME280;2213;49.720;7.296;2023-08-20T08:53:22;98677.81;;;23.16;100.00
4398;BME280;2213;49.720;7.296;2023-08-20T08:55:55;98674.94;;;23.22;100.00
4398;BME280;2213;49.720;7.296;2023-08-20T08:58:24;98675.00;;;23.27;100.00
4398;BME280;2213;49.720;7.296;2023-08-20T09:00:55;98670.50;;;23.33;100.00
4398;BME280;2213;49.720;7.296;2023-08-20T09:03:24;98669.75;;;23.37;100.00
4398;BME280;2213;49.720;7.296;2023-08-20T09:05:57;98674.38;;;23.42;100.00
4398;BME280;2213;49.720;7.296;2023-08-20T09:08:29;98669.31;;;23.45;100.00
4398;BME280;2213;49.720;7.296;2023-08-20T09:11:02;98670.16;;;23.51;100.00
4398;BME280;2213;49.720;7.296;2023-08-20T09:13:36;98669.13;;;23.57;100.00
4398;BME280;2213;49.720;7.296;2023-08-20T09:16:09;98661.41;;;23.61;100.00
4398;BME280;2213;49.720;7.296;2023-08-20T09:18:40;98664.66;;;23.68;100.00
4398;BME280;2213;49.720;7.296;2023-08-20T09:21:11;98655.91;;;23.72;100.00
4398;BME280;2213;49.720;7.296;2023-08-20T09:23:46;98657.28;;;23.80;100.00
4398;BME280;2213;49.720;7.296;2023-08-20T09:26:15;98661.06;;;23.84;100.00
4398;BME280;2213;49.720;7.296;2023-08-20T09:28:48;98662.16;;;23.88;100.00
4398;BME280;2213;49.720;7.296;2023-08-20T09:31:19;98652.53;;;23.92;100.00
4398;BME280;2213;49.720;7.296;2023-08-20T09:33:50;98654.47;;;23.96;100.00
4398;BME280;2213;49.720;7.296;2023-08-20T09:36:31;98648.06;;;24.02;100.00
4398;BME280;2213;49.720;7.296;2023-08-20T09:39:01;98641.41;;;24.05;100.00
4398;BME280;2213;49.720;7.296;2023-08-20T09:41:33;98642.50;;;24.09;100.00
4398;BME280;2213;49.720;7.296;2023-08-20T09:44:08;98639.31;;;24.12;100.00
4398;BME280;2213;49.720;7.296;2023-08-20T09:46:42;98641.50;;;24.15;100.00
4398;BME280;2213;49.720;7.296;2023-08-20T09:49:17;98652.22;;;24.20;100.00
4398;BME280;2213;49.720;7.296;2023-08-20T09:51:53;98650.38;;;24.26;100.00
4398;BME280;2213;49.720;7.296;2023-08-20T09:54:36;98651.19;;;24.31;100.00
4398;BME280;2213;49.720;7.296;2023-08-20T09:57:23;98644.78;;;24.37;100.00
4398;BME280;2213;49.720;7.296;2023-08-20T09:59:57;98652.56;;;24.44;100.00
4398;BME280;2213;49.720;7.296;2023-08-20T10:02:29;98650.19;;;24.47;100.00
4398;BME280;2213;49.720;7.296;2023-08-20T10:05:00;98652.91;;;24.52;100.00
4398;BME280;2213;49.720;7.296;2023-08-20T10:07:32;98653.69;;;24.58;100.00
4398;BME280;2213;49.720;7.296;2023-08-20T10:10:08;98653.97;;;24.62;100.00
4398;BME280;2213;49.720;7.296;2023-08-20T10:12:41;98653.22;;;24.66;100.00
4398;BME280;2213;49.720;7.296;2023-08-20T10:15:13;98656.69;;;24.72;100.00
4398;BME280;2213;49.720;7.296;2023-08-20T10:17:45;98656.72;;;24.77;100.00
4398;BME280;2213;49.720;7.296;2023-08-20T10:20:15;98664.22;;;24.80;100.00
4398;BME280;2213;49.720;7.296;2023-08-20T10:22:46;98663.72;;;24.83;100.00
4398;BME280;2213;49.720;7.296;2023-08-20T10:25:23;98664.00;;;24.86;100.00
4398;BME280;2213;49.720;7.296;2023-08-20T10:27:53;98657.31;;;24.89;100.00
4398;BME280;2213;49.720;7.296;2023-08-20T10:30:25;98668.03;;;24.94;100.00
4398;BME280;2213;49.720;7.296;2023-08-20T10:32:57;98664.81;;;24.97;100.00
4398;BME280;2213;49.720;7.296;2023-08-20T10:35:48;98662.69;;;24.99;100.00
4398;BME280;2213;49.720;7.296;2023-08-20T10:38:18;98657.34;;;25.04;100.00
4398;BME280;2213;49.720;7.296;2023-08-20T10:40:52;98659.47;;;25.07;100.00
4398;BME280;2213;49.720;7.296;2023-08-20T10:43:32;98668.06;;;25.14;100.00
4398;BME280;2213;49.720;7.296;2023-08-20T10:46:13;98667.28;;;25.19;100.00
4398;BME280;2213;49.720;7.296;2023-08-20T10:48:49;98662.19;;;25.22;100.00
4398;BME280;2213;49.720;7.296;2023-08-20T10:51:25;98663.28;;;25.26;100.00
4398;BME280;2213;49.720;7.296;2023-08-20T10:54:07;98666.22;;;25.35;100.00
4398;BME280;2213;49.720;7.296;2023-08-20T10:56:45;98666.75;;;25.42;100.00
4398;BME280;2213;49.720;7.296;2023-08-20T10:59:17;98663.53;;;25.50;100.00
4398;BME280;2213;49.720;7.296;2023-08-20T11:01:48;98659.03;;;25.61;100.00
4398;BME280;2213;49.720;7.296;2023-08-20T11:04:20;98653.38;;;25.67;100.00
4398;BME280;2213;49.720;7.296;2023-08-20T11:06:53;98660.63;;;25.72;100.00
4398;BME280;2213;49.720;7.296;2023-08-20T11:09:24;98647.75;;;25.74;100.00
4398;BME280;2213;49.720;7.296;2023-08-20T11:11:55;98653.38;;;25.77;100.00
4398;BME280;2213;49.720;7.296;2023-08-20T11:14:25;98656.56;;;25.79;100.00
4398;BME280;2213;49.720;7.296;2023-08-20T11:17:07;98656.31;;;25.86;100.00
4398;BME280;2213;49.720;7.296;2023-08-20T11:19:40;98654.13;;;25.93;100.00
4398;BME280;2213;49.720;7.296;2023-08-20T11:22:14;98654.13;;;25.98;100.00
4398;BME280;2213;49.720;7.296;2023-08-20T11:24:47;98653.34;;;26.02;100.00
4398;BME280;2213;49.720;7.296;2023-08-20T11:27:17;98654.09;;;26.08;100.00
4398;BME280;2213;49.720;7.296;2023-08-20T11:29:47;98657.84;;;26.12;100.00
4398;BME280;2213;49.720;7.296;2023-08-20T11:32:18;98661.59;;;26.16;100.00
4398;BME280;2213;49.720;7.296;2023-08-20T11:34:49;98660.53;;;26.22;100.00
4398;BME280;2213;49.720;7.296;2023-08-20T11:37:20;98654.91;;;26.24;100.00
4398;BME280;2213;49.720;7.296;2023-08-20T11:39:51;98652.50;;;26.27;100.00
4398;BME280;2213;49.720;7.296;2023-08-20T11:42:22;98655.69;;;26.29;100.00
4398;BME280;2213;49.720;7.296;2023-08-20T11:44:55;98655.94;;;26.33;100.00
4398;BME280;2213;49.720;7.296;2023-08-20T11:47:25;98650.28;;;26.44;100.00
4398;BME280;2213;49.720;7.296;2023-08-20T11:50:07;98654.25;;;26.52;100.00
4398;BME280;2213;49.720;7.296;2023-08-20T11:52:38;98647.00;;;26.58;100.00
4398;BME280;2213;49.720;7.296;2023-08-20T11:55:09;98645.31;;;26.67;100.00
4398;BME280;2213;49.720;7.296;2023-08-20T11:57:39;98643.69;;;26.71;100.00
4398;BME280;2213;49.720;7.296;2023-08-20T12:00:24;98640.72;;;26.77;100.00
4398;BME280;2213;49.720;7.296;2023-08-20T12:02:57;98636.16;;;26.83;100.00
4398;BME280;2213;49.720;7.296;2023-08-20T12:05:29;98633.16;;;26.89;100.00
4398;BME280;2213;49.720;7.296;2023-08-20T12:07:59;98631.22;;;26.95;100.00
4398;BME280;2213;49.720;7.296;2023-08-20T12:10:31;98631.16;;;27.05;100.00
4398;BME280;2213;49.720;7.296;2023-08-20T12:13:03;98637.25;;;27.16;100.00
4398;BME280;2213;49.720;7.296;2023-08-20T12:15:33;98632.13;;;27.19;100.00
4398;BME280;2213;49.720;7.296;2023-08-20T12:18:05;98631.00;;;27.25;100.00
4398;BME280;2213;49.720;7.296;2023-08-20T12:20:39;98629.34;;;27.34;100.00
4398;BME280;2213;49.720;7.296;2023-08-20T12:23:11;98626.03;;;27.42;100.00
4398;BME280;2213;49.720;7.296;2023-08-20T12:25:51;98626.53;;;27.49;100.00
4398;BME280;2213;49.720;7.296;2023-08-20T12:28:21;98624.63;;;27.55;100.00
4398;BME280;2213;49.720;7.296;2023-08-20T12:30:53;98621.06;;;27.60;100.00
4398;BME280;2213;49.720;7.296;2023-08-20T12:33:24;98617.28;;;27.66;100.00
4398;BME280;2213;49.720;7.296;2023-08-20T12:35:56;98620.69;;;27.71;100.00
4398;BME280;2213;49.720;7.296;2023-08-20T12:38:27;98619.84;;;27.76;100.00
4398;BME280;2213;49.720;7.296;2023-08-20T12:41:01;98617.91;;;27.81;100.00
4398;BME280;2213;49.720;7.296;2023-08-20T12:43:32;98614.66;;;27.84;100.00
4398;BME280;2213;49.720;7.296;2023-08-20T12:46:02;98607.91;;;27.87;100.00
4398;BME280;2213;49.720;7.296;2023-08-20T12:48:32;98614.88;;;27.88;100.00
4398;BME280;2213;49.720;7.296;2023-08-20T12:51:03;98610.84;;;27.90;98.46
4398;BME280;2213;49.720;7.296;2023-08-20T12:53:33;98612.66;;;27.95;96.22
4398;BME280;2213;49.720;7.296;2023-08-20T12:56:04;98607.22;;;28.00;95.45
4398;BME280;2213;49.720;7.296;2023-08-20T12:58:34;98610.97;;;28.04;93.17
4398;BME280;2213;49.720;7.296;2023-08-20T13:01:04;98614.13;;;28.11;94.14
4398;BME280;2213;49.720;7.296;2023-08-20T13:03:34;98606.53;;;28.18;96.34
4398;BME280;2213;49.720;7.296;2023-08-20T13:06:08;98610.22;;;28.22;95.50
4398;BME280;2213;49.720;7.296;2023-08-20T13:08:39;98603.16;;;28.26;98.87
4398;BME280;2213;49.720;7.296;2023-08-20T13:11:13;98607.41;;;28.32;99.02
4398;BME280;2213;49.720;7.296;2023-08-20T13:13:46;98601.69;;;28.39;100.00
4398;BME280;2213;49.720;7.296;2023-08-20T13:16:22;98605.91;;;28.45;100.00
4398;BME280;2213;49.720;7.296;2023-08-20T13:18:53;98601.78;;;28.53;99.31
4398;BME280;2213;49.720;7.296;2023-08-20T13:21:25;98608.47;;;28.55;96.06
4398;BME280;2213;49.720;7.296;2023-08-20T13:23:54;98600.38;;;28.55;93.62
4398;BME280;2213;49.720;7.296;2023-08-20T13:26:25;98606.00;;;28.59;97.01
4398;BME280;2213;49.720;7.296;2023-08-20T13:28:55;98596.84;;;28.60;94.80
4398;BME280;2213;49.720;7.296;2023-08-20T13:31:26;98601.03;;;28.66;95.64
4398;BME280;2213;49.720;7.296;2023-08-20T13:33:56;98603.13;;;28.74;93.62
4398;BME280;2213;49.720;7.296;2023-08-20T13:36:26;98593.56;;;28.81;90.37
4398;BME280;2213;49.720;7.296;2023-08-20T13:38:56;98601.72;;;28.95;88.92